sensor_id;sensor_type;location;lat;lon;timestamp;P1;durP1;ratioP1;P2;durP2;ratioP2
56075;SDS011;41951;49.022;12.066;2024-01-15T00:02:09;41.88;;;18.00;;
56075;SDS011;41951;49.022;12.066;2024-01-15T00:04:41;34.95;;;16.92;;
56075;SDS011;41951;49.022;12.066;2024-01-15T00:07:07;38.95;;;16.33;;
56075;SDS011;41951;49.022;12.066;2024-01-15T00:09:33;40.63;;;16.58;;
56075;SDS011;41951;49.022;12.066;2024-01-15T00:12:01;35.97;;;15.20;;
56075;SDS011;41951;49.022;12.066;2024-01-15T00:14:27;37.85;;;17.13;;
56075;SDS011;41951;49.022;12.066;2024-01-15T00:16:53;40.53;;;16.27;;
56075;SDS011;41951;49.022;12.066;2024-01-15T00:19:20;38.00;;;17.55;;
56075;SDS011;41951;49.022;12.066;2024-01-15T00:21:46;39.83;;;17.85;;
56075;SDS011;41951;49.022;12.066;2024-01-15T00:24:12;40.47;;;17.83;;
56075;SDS011;41951;49.022;12.066;2024-01-15T00:26:38;37.88;;;15.13;;
56075;SDS011;41951;49.022;12.066;2024-01-15T00:29:04;40.95;;;16.10;;
56075;SDS011;41951;49.022;12.066;2024-01-15T00:31:31;35.55;;;16.75;;
56075;SDS011;41951;49.022;12.066;2024-01-15T00:33:56;32.45;;;14.20;;
56075;SDS011;41951;49.022;12.066;2024-01-15T00:36:25;38.92;;;15.43;;
56075;SDS011;41951;49.022;12.066;2024-01-15T00:38:50;39.35;;;14.93;;
56075;SDS011;41951;49.022;12.066;2024-01-15T00:41:16;33.20;;;13.85;;
56075;SDS011;41951;49.022;12.066;2024-01-15T00:43:43;31.90;;;12.40;;
56075;SDS011;41951;49.022;12.066;2024-01-15T00:46:14;34.25;;;14.25;;
56075;SDS011;41951;49.022;12.066;2024-01-15T00:48:39;29.42;;;12.43;;
56075;SDS011;41951;49.022;12.066;2024-01-15T00:51:05;40.10;;;14.35;;
56075;SDS011;41951;49.022;12.066;2024-01-15T00:53:30;38.00;;;16.10;;
56075;SDS011;41951;49.022;12.066;2024-01-15T00:55:56;34.67;;;15.02;;
56075;SDS011;41951;49.022;12.066;2024-01-15T00:58:22;40.30;;;13.73;;
56075;SDS011;41951;49.022;12.066;2024-01-15T01:00:48;37.03;;;15.65;;
56075;SDS011;41951;49.022;12.066;2024-01-15T01:03:13;30.48;;;11.98;;
56075;SDS011;41951;49.022;12.066;2024-01-15T01:05:39;40.95;;;14.88;;
56075;SDS011;41951;49.022;12.066;2024-01-15T01:08:05;42.25;;;17.08;;
56075;SDS011;41951;49.022;12.066;2024-01-15T01:10:30;38.22;;;15.75;;
56075;SDS011;41951;49.022;12.066;2024-01-15T01:12:56;43.25;;;14.95;;
56075;SDS011;41951;49.022;12.066;2024-01-15T01:15:22;43.05;;;15.65;;
56075;SDS011;41951;49.022;12.066;2024-01-15T01:17:47;36.00;;;15.52;;
56075;SDS011;41951;49.022;12.066;2024-01-15T01:20:13;40.28;;;16.23;;
56075;SDS011;41951;49.022;12.066;2024-01-15T01:22:40;41.05;;;14.95;;
56075;SDS011;41951;49.022;12.066;2024-01-15T01:25:06;40.83;;;16.20;;
56075;SDS011;41951;49.022;12.066;2024-01-15T01:27:31;41.88;;;15.52;;
56075;SDS011;41951;49.022;12.066;2024-01-15T01:29:57;48.13;;;16.80;;
56075;SDS011;41951;49.022;12.066;2024-01-15T01:32:23;48.20;;;16.77;;
56075;SDS011;41951;49.022;12.066;2024-01-15T01:34:48;38.63;;;13.95;;
56075;SDS011;41951;49.022;12.066;2024-01-15T01:37:14;34.83;;;14.57;;
56075;SDS011;41951;49.022;12.066;2024-01-15T01:39:40;41.15;;;15.40;;
56075;SDS011;41951;49.022;12.066;2024-01-15T01:42:06;32.90;;;14.15;;
56075;SDS011;41951;49.022;12.066;2024-01-15T01:44:32;38.13;;;13.98;;
56075;SDS011;41951;49.022;12.066;2024-01-15T01:46:58;32.58;;;13.10;;
56075;SDS011;41951;49.022;12.066;2024-01-15T01:49:24;29.50;;;13.23;;
56075;SDS011;41951;49.022;12.066;2024-01-15T01:51:51;40.40;;;14.25;;
56075;SDS011;41951;49.022;12.066;2024-01-15T01:54:17;38.45;;;13.80;;
56075;SDS011;41951;49.022;12.066;2024-01-15T01:56:45;41.55;;;14.40;;
56075;SDS011;41951;49.022;12.066;2024-01-15T01:59:11;31.73;;;12.27;;
56075;SDS011;41951;49.022;12.066;2024-01-15T02:01:38;41.72;;;14.88;;
56075;SDS011;41951;49.022;12.066;2024-01-15T02:04:04;37.88;;;14.13;;
56075;SDS011;41951;49.022;12.066;2024-01-15T02:06:29;36.55;;;12.77;;
56075;SDS011;41951;49.022;12.066;2024-01-15T02:08:55;34.05;;;12.48;;
56075;SDS011;41951;49.022;12.066;2024-01-15T02:11:21;36.75;;;14.43;;
56075;SDS011;41951;49.022;12.066;2024-01-15T02:13:46;38.58;;;13.30;;
56075;SDS011;41951;49.022;12.066;2024-01-15T02:16:12;39.53;;;15.63;;
56075;SDS011;41951;49.022;12.066;2024-01-15T02:18:41;33.67;;;12.90;;
56075;SDS011;41951;49.022;12.066;2024-01-15T02:21:08;35.60;;;12.82;;
56075;SDS011;41951;49.022;12.066;2024-01-15T02:23:34;34.83;;;12.63;;
56075;SDS011;41951;49.022;12.066;2024-01-15T02:26:00;33.10;;;13.82;;
56075;SDS011;41951;49.022;12.066;2024-01-15T02:28:26;29.25;;;10.90;;
56075;SDS011;41951;49.022;12.066;2024-01-15T02:30:51;32.95;;;12.80;;
56075;SDS011;41951;49.022;12.066;2024-01-15T02:33:17;32.95;;;13.35;;
56075;SDS011;41951;49.022;12.066;2024-01-15T02:35:43;34.13;;;12.90;;
56075;SDS011;41951;49.022;12.066;2024-01-15T02:38:08;35.83;;;14.70;;
56075;SDS011;41951;49.022;12.066;2024-01-15T02:40:34;33.05;;;12.63;;
56075;SDS011;41951;49.022;12.066;2024-01-15T02:43:00;28.05;;;13.70;;
56075;SDS011;41951;49.022;12.066;2024-01-15T02:45:25;32.65;;;13.60;;
56075;SDS011;41951;49.022;12.066;2024-01-15T02:47:51;30.40;;;12.07;;
56075;SDS011;41951;49.022;12.066;2024-01-15T02:50:17;32.75;;;12.60;;
56075;SDS011;41951;49.022;12.066;2024-01-15T02:52:42;32.20;;;13.23;;
56075;SDS011;41951;49.022;12.066;2024-01-15T02:55:08;31.40;;;11.70;;
56075;SDS011;41951;49.022;12.066;2024-01-15T02:57:34;30.15;;;11.85;;
56075;SDS011;41951;49.022;12.066;2024-01-15T02:59:59;31.95;;;11.05;;
56075;SDS011;41951;49.022;12.066;2024-01-15T03:02:25;31.65;;;12.98;;
56075;SDS011;41951;49.022;12.066;2024-01-15T03:04:50;27.65;;;10.07;;
56075;SDS011;41951;49.022;12.066;2024-01-15T03:07:16;27.88;;;10.65;;
56075;SDS011;41951;49.022;12.066;2024-01-15T03:09:42;29.30;;;11.63;;
56075;SDS011;41951;49.022;12.066;2024-01-15T03:12:07;25.83;;;10.75;;
56075;SDS011;41951;49.022;12.066;2024-01-15T03:14:33;29.85;;;11.95;;
56075;SDS011;41951;49.022;12.066;2024-01-15T03:16:59;27.00;;;11.13;;
56075;SDS011;41951;49.022;12.066;2024-01-15T03:19:25;27.30;;;11.77;;
56075;SDS011;41951;49.022;12.066;2024-01-15T03:21:51;27.70;;;10.43;;
56075;SDS011;41951;49.022;12.066;2024-01-15T03:24:16;23.42;;;10.18;;
56075;SDS011;41951;49.022;12.066;2024-01-15T03:26:42;32.20;;;11.52;;
56075;SDS011;41951;49.022;12.066;2024-01-15T03:29:08;31.98;;;11.52;;
56075;SDS011;41951;49.022;12.066;2024-01-15T03:31:33;23.25;;;9.43;;
56075;SDS011;41951;49.022;12.066;2024-01-15T03:33:59;26.77;;;10.25;;
56075;SDS011;41951;49.022;12.066;2024-01-15T03:36:24;26.33;;;10.13;;
56075;SDS011;41951;49.022;12.066;2024-01-15T03:38:50;29.77;;;10.57;;
56075;SDS011;41951;49.022;12.066;2024-01-15T03:41:16;24.73;;;10.45;;
56075;SDS011;41951;49.022;12.066;2024-01-15T03:43:41;25.48;;;9.68;;
56075;SDS011;41951;49.022;12.066;2024-01-15T03:46:07;27.70;;;10.07;;
56075;SDS011;41951;49.022;12.066;2024-01-15T03:48:32;28.23;;;10.23;;
56075;SDS011;41951;49.022;12.066;2024-01-15T03:50:58;27.17;;;10.02;;
56075;SDS011;41951;49.022;12.066;2024-01-15T03:53:23;26.83;;;9.88;;
56075;SDS011;41951;49.022;12.066;2024-01-15T03:55:49;24.90;;;9.88;;
56075;SDS011;41951;49.022;12.066;2024-01-15T03:58:15;24.30;;;11.63;;
56075;SDS011;41951;49.022;12.066;2024-01-15T04:00:41;27.27;;;10.55;;
56075;SDS011;41951;49.022;12.066;2024-01-15T04:03:07;23.33;;;9.40;;
56075;SDS011;41951;49.022;12.066;2024-01-15T04:05:32;23.10;;;8.88;;
56075;SDS011;41951;49.022;12.066;2024-01-15T04:07:58;28.75;;;12.18;;
56075;SDS011;41951;49.022;12.066;2024-01-15T04:10:23;23.70;;;8.88;;
56075;SDS011;41951;49.022;12.066;2024-01-15T04:12:49;25.55;;;10.75;;
56075;SDS011;41951;49.022;12.066;2024-01-15T04:15:15;18.05;;;7.70;;
56075;SDS011;41951;49.022;12.066;2024-01-15T04:17:40;26.15;;;9.10;;
56075;SDS011;41951;49.022;12.066;2024-01-15T04:20:06;25.40;;;9.73;;
56075;SDS011;41951;49.022;12.066;2024-01-15T04:22:33;22.15;;;9.63;;
56075;SDS011;41951;49.022;12.066;2024-01-15T04:25:00;23.08;;;8.95;;
56075;SDS011;41951;49.022;12.066;2024-01-15T04:27:26;24.60;;;8.98;;
56075;SDS011;41951;49.022;12.066;2024-01-15T04:29:51;21.17;;;9.02;;
56075;SDS011;41951;49.022;12.066;2024-01-15T04:32:17;26.38;;;9.68;;
56075;SDS011;41951;49.022;12.066;2024-01-15T04:34:43;20.15;;;9.15;;
56075;SDS011;41951;49.022;12.066;2024-01-15T04:37:09;22.35;;;9.15;;
56075;SDS011;41951;49.022;12.066;2024-01-15T04:39:34;21.92;;;9.27;;
56075;SDS011;41951;49.022;12.066;2024-01-15T04:42:00;21.23;;;8.75;;
56075;SDS011;41951;49.022;12.066;2024-01-15T04:44:25;22.00;;;10.25;;
56075;SDS011;41951;49.022;12.066;2024-01-15T04:46:51;21.65;;;8.90;;
56075;SDS011;41951;49.022;12.066;2024-01-15T04:49:17;22.40;;;9.15;;
56075;SDS011;41951;49.022;12.066;2024-01-15T04:51:42;23.77;;;9.00;;
56075;SDS011;41951;49.022;12.066;2024-01-15T04:54:08;22.70;;;8.85;;
56075;SDS011;41951;49.022;12.066;2024-01-15T04:56:33;21.90;;;8.65;;
56075;SDS011;41951;49.022;12.066;2024-01-15T04:58:59;17.27;;;7.35;;
56075;SDS011;41951;49.022;12.066;2024-01-15T05:01:24;22.50;;;8.35;;
56075;SDS011;41951;49.022;12.066;2024-01-15T05:03:50;19.60;;;8.65;;
56075;SDS011;41951;49.022;12.066;2024-01-15T05:06:15;19.98;;;8.45;;
56075;SDS011;41951;49.022;12.066;2024-01-15T05:08:41;20.80;;;8.55;;
56075;SDS011;41951;49.022;12.066;2024-01-15T05:11:06;23.02;;;9.27;;
56075;SDS011;41951;49.022;12.066;2024-01-15T05:13:32;23.85;;;9.60;;
56075;SDS011;41951;49.022;12.066;2024-01-15T05:15:58;23.50;;;8.80;;
56075;SDS011;41951;49.022;12.066;2024-01-15T05:18:23;20.52;;;8.85;;
56075;SDS011;41951;49.022;12.066;2024-01-15T05:20:49;19.45;;;7.90;;
56075;SDS011;41951;49.022;12.066;2024-01-15T05:23:15;21.20;;;9.45;;
56075;SDS011;41951;49.022;12.066;2024-01-15T05:25:40;22.67;;;8.43;;
56075;SDS011;41951;49.022;12.066;2024-01-15T05:28:06;22.58;;;10.20;;
56075;SDS011;41951;49.022;12.066;2024-01-15T05:30:31;19.65;;;9.18;;
56075;SDS011;41951;49.022;12.066;2024-01-15T05:32:57;21.05;;;8.07;;
56075;SDS011;41951;49.022;12.066;2024-01-15T05:35:22;22.17;;;8.48;;
56075;SDS011;41951;49.022;12.066;2024-01-15T05:37:48;16.75;;;7.55;;
56075;SDS011;41951;49.022;12.066;2024-01-15T05:40:15;20.02;;;7.30;;
56075;SDS011;41951;49.022;12.066;2024-01-15T05:42:41;18.45;;;8.23;;
56075;SDS011;41951;49.022;12.066;2024-01-15T05:45:07;17.10;;;8.05;;
56075;SDS011;41951;49.022;12.066;2024-01-15T05:47:33;22.02;;;8.32;;
56075;SDS011;41951;49.022;12.066;2024-01-15T05:49:58;21.95;;;8.35;;
56075;SDS011;41951;49.022;12.066;2024-01-15T05:52:25;19.55;;;7.72;;
56075;SDS011;41951;49.022;12.066;2024-01-15T05:54:51;18.88;;;8.02;;
56075;SDS011;41951;49.022;12.066;2024-01-15T05:57:16;18.25;;;8.23;;
56075;SDS011;41951;49.022;12.066;2024-01-15T05:59:45;20.88;;;8.52;;
56075;SDS011;41951;49.022;12.066;2024-01-15T06:02:10;19.50;;;7.15;;
56075;SDS011;41951;49.022;12.066;2024-01-15T06:04:36;18.88;;;8.40;;
56075;SDS011;41951;49.022;12.066;2024-01-15T06:07:02;19.75;;;9.20;;
56075;SDS011;41951;49.022;12.066;2024-01-15T06:09:28;19.00;;;7.28;;
56075;SDS011;41951;49.022;12.066;2024-01-15T06:11:53;18.52;;;7.53;;
56075;SDS011;41951;49.022;12.066;2024-01-15T06:14:20;19.98;;;8.00;;
56075;SDS011;41951;49.022;12.066;2024-01-15T06:16:45;19.55;;;7.93;;
56075;SDS011;41951;49.022;12.066;2024-01-15T06:19:11;17.58;;;7.90;;
56075;SDS011;41951;49.022;12.066;2024-01-15T06:21:36;17.88;;;8.02;;
56075;SDS011;41951;49.022;12.066;2024-01-15T06:24:02;18.58;;;7.90;;
56075;SDS011;41951;49.022;12.066;2024-01-15T06:26:27;15.32;;;7.00;;
56075;SDS011;41951;49.022;12.066;2024-01-15T06:28:53;18.52;;;7.38;;
56075;SDS011;41951;49.022;12.066;2024-01-15T06:31:19;21.63;;;8.27;;
56075;SDS011;41951;49.022;12.066;2024-01-15T06:33:44;25.02;;;8.90;;
56075;SDS011;41951;49.022;12.066;2024-01-15T06:36:12;19.20;;;7.55;;
56075;SDS011;41951;49.022;12.066;2024-01-15T06:38:37;20.98;;;7.70;;
56075;SDS011;41951;49.022;12.066;2024-01-15T06:41:03;16.45;;;7.15;;
56075;SDS011;41951;49.022;12.066;2024-01-15T06:43:29;17.42;;;7.07;;
56075;SDS011;41951;49.022;12.066;2024-01-15T06:45:54;16.38;;;7.60;;
56075;SDS011;41951;49.022;12.066;2024-01-15T06:48:20;18.88;;;7.50;;
56075;SDS011;41951;49.022;12.066;2024-01-15T06:50:45;16.23;;;7.03;;
56075;SDS011;41951;49.022;12.066;2024-01-15T06:53:11;20.70;;;8.10;;
56075;SDS011;41951;49.022;12.066;2024-01-15T06:55:37;16.67;;;7.03;;
56075;SDS011;41951;49.022;12.066;2024-01-15T06:58:03;18.95;;;7.15;;
56075;SDS011;41951;49.022;12.066;2024-01-15T07:00:29;17.73;;;7.18;;
56075;SDS011;41951;49.022;12.066;2024-01-15T07:02:55;18.77;;;7.70;;
56075;SDS011;41951;49.022;12.066;2024-01-15T07:05:21;14.98;;;7.00;;
56075;SDS011;41951;49.022;12.066;2024-01-15T07:07:46;15.30;;;7.43;;
56075;SDS011;41951;49.022;12.066;2024-01-15T07:10:12;16.02;;;6.30;;
56075;SDS011;41951;49.022;12.066;2024-01-15T07:12:38;14.57;;;6.90;;
56075;SDS011;41951;49.022;12.066;2024-01-15T07:15:06;16.23;;;6.82;;
56075;SDS011;41951;49.022;12.066;2024-01-15T07:17:33;16.00;;;6.35;;
56075;SDS011;41951;49.022;12.066;2024-01-15T07:19:58;13.93;;;6.15;;
56075;SDS011;41951;49.022;12.066;2024-01-15T07:22:24;13.77;;;5.97;;
56075;SDS011;41951;49.022;12.066;2024-01-15T07:24:50;16.65;;;7.68;;
56075;SDS011;41951;49.022;12.066;2024-01-15T07:27:15;13.35;;;5.88;;
56075;SDS011;41951;49.022;12.066;2024-01-15T07:29:41;13.88;;;6.53;;
56075;SDS011;41951;49.022;12.066;2024-01-15T07:32:08;13.55;;;5.82;;
56075;SDS011;41951;49.022;12.066;2024-01-15T07:34:33;16.70;;;6.38;;
56075;SDS011;41951;49.022;12.066;2024-01-15T07:36:59;14.77;;;5.93;;
56075;SDS011;41951;49.022;12.066;2024-01-15T07:39:25;14.40;;;6.75;;
56075;SDS011;41951;49.022;12.066;2024-01-15T07:41:51;14.80;;;5.63;;
56075;SDS011;41951;49.022;12.066;2024-01-15T07:44:17;14.02;;;5.88;;
56075;SDS011;41951;49.022;12.066;2024-01-15T07:46:46;16.42;;;5.93;;
56075;SDS011;41951;49.022;12.066;2024-01-15T07:49:12;14.07;;;6.15;;
56075;SDS011;41951;49.022;12.066;2024-01-15T07:51:38;15.32;;;6.07;;
56075;SDS011;41951;49.022;12.066;2024-01-15T07:54:05;13.32;;;5.95;;
56075;SDS011;41951;49.022;12.066;2024-01-15T07:56:31;14.35;;;5.40;;
56075;SDS011;41951;49.022;12.066;2024-01-15T07:58:56;12.77;;;5.57;;
56075;SDS011;41951;49.022;12.066;2024-01-15T08:01:22;12.48;;;5.15;;
56075;SDS011;41951;49.022;12.066;2024-01-15T08:03:47;12.02;;;4.32;;
56075;SDS011;41951;49.022;12.066;2024-01-15T08:06:13;10.15;;;4.90;;
56075;SDS011;41951;49.022;12.066;2024-01-15T08:08:39;12.32;;;4.60;;
56075;SDS011;41951;49.022;12.066;2024-01-15T08:11:04;13.85;;;5.30;;
56075;SDS011;41951;49.022;12.066;2024-01-15T08:13:30;11.23;;;5.03;;
56075;SDS011;41951;49.022;12.066;2024-01-15T08:15:55;11.88;;;5.20;;
56075;SDS011;41951;49.022;12.066;2024-01-15T08:18:21;11.40;;;5.55;;
56075;SDS011;41951;49.022;12.066;2024-01-15T08:20:47;10.27;;;5.15;;
56075;SDS011;41951;49.022;12.066;2024-01-15T08:23:12;12.57;;;5.38;;
56075;SDS011;41951;49.022;12.066;2024-01-15T08:25:38;9.65;;;4.80;;
56075;SDS011;41951;49.022;12.066;2024-01-15T08:28:04;14.73;;;5.38;;
56075;SDS011;41951;49.022;12.066;2024-01-15T08:30:29;11.43;;;5.50;;
56075;SDS011;41951;49.022;12.066;2024-01-15T08:32:55;11.10;;;4.78;;
56075;SDS011;41951;49.022;12.066;2024-01-15T08:35:21;17.13;;;5.03;;
56075;SDS011;41951;49.022;12.066;2024-01-15T08:37:51;12.70;;;5.28;;
56075;SDS011;41951;49.022;12.066;2024-01-15T08:40:17;9.93;;;4.90;;
56075;SDS011;41951;49.022;12.066;2024-01-15T08:42:43;10.50;;;4.60;;
56075;SDS011;41951;49.022;12.066;2024-01-15T08:45:10;11.20;;;5.35;;
56075;SDS011;41951;49.022;12.066;2024-01-15T08:47:36;12.90;;;5.50;;
56075;SDS011;41951;49.022;12.066;2024-01-15T08:50:02;9.20;;;4.35;;
56075;SDS011;41951;49.022;12.066;2024-01-15T08:52:28;8.85;;;4.50;;
56075;SDS011;41951;49.022;12.066;2024-01-15T08:54:55;10.43;;;5.07;;
56075;SDS011;41951;49.022;12.066;2024-01-15T08:57:21;11.75;;;4.28;;
56075;SDS011;41951;49.022;12.066;2024-01-15T08:59:47;10.43;;;4.78;;
56075;SDS011;41951;49.022;12.066;2024-01-15T09:02:12;13.43;;;4.93;;
56075;SDS011;41951;49.022;12.066;2024-01-15T09:04:38;14.05;;;5.38;;
56075;SDS011;41951;49.022;12.066;2024-01-15T09:07:04;10.35;;;4.95;;
56075;SDS011;41951;49.022;12.066;2024-01-15T09:09:29;10.20;;;5.15;;
56075;SDS011;41951;49.022;12.066;2024-01-15T09:11:55;11.60;;;4.88;;
56075;SDS011;41951;49.022;12.066;2024-01-15T09:14:21;9.68;;;4.20;;
56075;SDS011;41951;49.022;12.066;2024-01-15T09:16:47;10.20;;;4.57;;
56075;SDS011;41951;49.022;12.066;2024-01-15T09:19:13;11.38;;;4.25;;
56075;SDS011;41951;49.022;12.066;2024-01-15T09:21:38;9.38;;;4.10;;
56075;SDS011;41951;49.022;12.066;2024-01-15T09:24:05;12.38;;;5.57;;
56075;SDS011;41951;49.022;12.066;2024-01-15T09:26:30;9.23;;;4.03;;
56075;SDS011;41951;49.022;12.066;2024-01-15T09:28:57;10.23;;;3.90;;
56075;SDS011;41951;49.022;12.066;2024-01-15T09:31:22;9.60;;;3.80;;
56075;SDS011;41951;49.022;12.066;2024-01-15T09:33:48;11.68;;;4.55;;
56075;SDS011;41951;49.022;12.066;2024-01-15T09:36:16;10.32;;;4.32;;
56075;SDS011;41951;49.022;12.066;2024-01-15T09:38:42;9.52;;;4.32;;
56075;SDS011;41951;49.022;12.066;2024-01-15T09:41:07;10.00;;;4.13;;
56075;SDS011;41951;49.022;12.066;2024-01-15T09:43:33;10.55;;;4.75;;
56075;SDS011;41951;49.022;12.066;2024-01-15T09:45:59;8.75;;;3.60;;
56075;SDS011;41951;49.022;12.066;2024-01-15T09:48:26;10.68;;;4.57;;
56075;SDS011;41951;49.022;12.066;2024-01-15T09:50:51;9.00;;;3.85;;
56075;SDS011;41951;49.022;12.066;2024-01-15T09:53:17;10.23;;;4.60;;
56075;SDS011;41951;49.022;12.066;2024-01-15T09:55:45;8.65;;;4.25;;
56075;SDS011;41951;49.022;12.066;2024-01-15T09:58:11;16.02;;;4.82;;
56075;SDS011;41951;49.022;12.066;2024-01-15T10:00:37;10.30;;;4.63;;
56075;SDS011;41951;49.022;12.066;2024-01-15T10:03:06;9.38;;;4.25;;
56075;SDS011;41951;49.022;12.066;2024-01-15T10:05:33;8.98;;;4.00;;
56075;SDS011;41951;49.022;12.066;2024-01-15T10:07:58;12.52;;;5.03;;
56075;SDS011;41951;49.022;12.066;2024-01-15T10:10:25;9.57;;;4.57;;
56075;SDS011;41951;49.022;12.066;2024-01-15T10:12:51;9.00;;;4.28;;
56075;SDS011;41951;49.022;12.066;2024-01-15T10:15:16;11.63;;;5.03;;
56075;SDS011;41951;49.022;12.066;2024-01-15T10:17:42;10.52;;;4.63;;
56075;SDS011;41951;49.022;12.066;2024-01-15T10:20:09;10.00;;;4.32;;
56075;SDS011;41951;49.022;12.066;2024-01-15T10:22:38;9.73;;;4.38;;
56075;SDS011;41951;49.022;12.066;2024-01-15T10:25:05;11.35;;;5.03;;
56075;SDS011;41951;49.022;12.066;2024-01-15T10:27:31;11.05;;;4.88;;
56075;SDS011;41951;49.022;12.066;2024-01-15T10:30:00;10.50;;;4.05;;
56075;SDS011;41951;49.022;12.066;2024-01-15T10:32:27;11.60;;;5.43;;
56075;SDS011;41951;49.022;12.066;2024-01-15T10:34:52;9.88;;;5.25;;
56075;SDS011;41951;49.022;12.066;2024-01-15T10:37:19;11.85;;;5.07;;
56075;SDS011;41951;49.022;12.066;2024-01-15T10:39:45;9.80;;;4.57;;
56075;SDS011;41951;49.022;12.066;2024-01-15T10:42:11;10.75;;;4.80;;
56075;SDS011;41951;49.022;12.066;2024-01-15T10:44:37;8.32;;;4.00;;
56075;SDS011;41951;49.022;12.066;2024-01-15T10:47:03;10.68;;;4.60;;
56075;SDS011;41951;49.022;12.066;2024-01-15T10:49:29;7.68;;;3.67;;
56075;SDS011;41951;49.022;12.066;2024-01-15T10:51:56;10.57;;;4.72;;
56075;SDS011;41951;49.022;12.066;2024-01-15T10:54:22;7.40;;;3.88;;
56075;SDS011;41951;49.022;12.066;2024-01-15T10:56:49;9.38;;;4.85;;
56075;SDS011;41951;49.022;12.066;2024-01-15T10:59:16;11.93;;;4.30;;
56075;SDS011;41951;49.022;12.066;2024-01-15T11:01:43;7.25;;;3.90;;
56075;SDS011;41951;49.022;12.066;2024-01-15T11:04:09;8.68;;;4.25;;
56075;SDS011;41951;49.022;12.066;2024-01-15T11:06:41;11.07;;;3.70;;
56075;SDS011;41951;49.022;12.066;2024-01-15T11:09:09;9.35;;;4.10;;
56075;SDS011;41951;49.022;12.066;2024-01-15T11:11:35;9.05;;;3.63;;
56075;SDS011;41951;49.022;12.066;2024-01-15T11:14:04;9.32;;;3.58;;
56075;SDS011;41951;49.022;12.066;2024-01-15T11:19:24;9.00;;;3.53;;
56075;SDS011;41951;49.022;12.066;2024-01-15T11:21:50;8.45;;;3.42;;
56075;SDS011;41951;49.022;12.066;2024-01-15T11:24:49;10.95;;;3.60;;
56075;SDS011;41951;49.022;12.066;2024-01-15T11:27:08;8.40;;;3.90;;
56075;SDS011;41951;49.022;12.066;2024-01-15T11:29:34;8.60;;;4.63;;
56075;SDS011;41951;49.022;12.066;2024-01-15T11:32:04;7.85;;;3.40;;
56075;SDS011;41951;49.022;12.066;2024-01-15T11:37:15;9.90;;;3.63;;
56075;SDS011;41951;49.022;12.066;2024-01-15T11:39:41;8.30;;;3.67;;
56075;SDS011;41951;49.022;12.066;2024-01-15T11:42:11;6.50;;;3.78;;
56075;SDS011;41951;49.022;12.066;2024-01-15T11:44:38;11.15;;;3.92;;
56075;SDS011;41951;49.022;12.066;2024-01-15T11:47:05;8.98;;;3.55;;
56075;SDS011;41951;49.022;12.066;2024-01-15T11:52:06;7.97;;;4.10;;
56075;SDS011;41951;49.022;12.066;2024-01-15T11:54:34;8.73;;;3.75;;
56075;SDS011;41951;49.022;12.066;2024-01-15T11:57:08;8.23;;;3.78;;
56075;SDS011;41951;49.022;12.066;2024-01-15T11:59:40;8.27;;;4.43;;
56075;SDS011;41951;49.022;12.066;2024-01-15T12:02:06;8.13;;;3.67;;
56075;SDS011;41951;49.022;12.066;2024-01-15T12:04:32;8.13;;;3.80;;
56075;SDS011;41951;49.022;12.066;2024-01-15T12:06:58;10.40;;;4.15;;
56075;SDS011;41951;49.022;12.066;2024-01-15T12:09:23;7.25;;;3.28;;
56075;SDS011;41951;49.022;12.066;2024-01-15T12:11:51;7.45;;;3.65;;
56075;SDS011;41951;49.022;12.066;2024-01-15T12:14:24;7.85;;;3.60;;
56075;SDS011;41951;49.022;12.066;2024-01-15T12:16:51;9.75;;;3.78;;
56075;SDS011;41951;49.022;12.066;2024-01-15T12:19:17;7.70;;;4.00;;
56075;SDS011;41951;49.022;12.066;2024-01-15T12:21:44;8.10;;;3.08;;
56075;SDS011;41951;49.022;12.066;2024-01-15T12:24:10;8.65;;;3.83;;
56075;SDS011;41951;49.022;12.066;2024-01-15T12:26:35;9.45;;;3.63;;
56075;SDS011;41951;49.022;12.066;2024-01-15T12:29:01;8.15;;;4.07;;
56075;SDS011;41951;49.022;12.066;2024-01-15T12:31:28;7.47;;;3.67;;
56075;SDS011;41951;49.022;12.066;2024-01-15T12:33:55;8.57;;;4.25;;
56075;SDS011;41951;49.022;12.066;2024-01-15T12:36:21;7.60;;;3.45;;
56075;SDS011;41951;49.022;12.066;2024-01-15T12:38:47;6.50;;;3.75;;
56075;SDS011;41951;49.022;12.066;2024-01-15T12:41:12;8.18;;;3.50;;
56075;SDS011;41951;49.022;12.066;2024-01-15T12:43:38;7.22;;;3.47;;
56075;SDS011;41951;49.022;12.066;2024-01-15T12:46:05;7.82;;;3.95;;
56075;SDS011;41951;49.022;12.066;2024-01-15T12:48:31;5.65;;;2.90;;
56075;SDS011;41951;49.022;12.066;2024-01-15T12:50:56;5.65;;;3.45;;
56075;SDS011;41951;49.022;12.066;2024-01-15T12:53:22;9.07;;;5.30;;
56075;SDS011;41951;49.022;12.066;2024-01-15T12:55:48;7.50;;;3.00;;
56075;SDS011;41951;49.022;12.066;2024-01-15T12:58:13;7.13;;;3.22;;
56075;SDS011;41951;49.022;12.066;2024-01-15T13:00:39;6.68;;;3.30;;
56075;SDS011;41951;49.022;12.066;2024-01-15T13:03:04;9.30;;;3.50;;
56075;SDS011;41951;49.022;12.066;2024-01-15T13:05:31;7.55;;;3.58;;
56075;SDS011;41951;49.022;12.066;2024-01-15T13:07:57;5.97;;;2.60;;
56075;SDS011;41951;49.022;12.066;2024-01-15T13:10:24;5.63;;;2.78;;
56075;SDS011;41951;49.022;12.066;2024-01-15T13:12:50;7.97;;;3.50;;
56075;SDS011;41951;49.022;12.066;2024-01-15T13:15:16;5.95;;;2.80;;
56075;SDS011;41951;49.022;12.066;2024-01-15T13:17:42;7.65;;;3.20;;
56075;SDS011;41951;49.022;12.066;2024-01-15T13:20:08;7.15;;;3.30;;
56075;SDS011;41951;49.022;12.066;2024-01-15T13:22:34;6.25;;;3.30;;
56075;SDS011;41951;49.022;12.066;2024-01-15T13:25:00;6.43;;;3.22;;
56075;SDS011;41951;49.022;12.066;2024-01-15T13:27:25;7.95;;;2.92;;
56075;SDS011;41951;49.022;12.066;2024-01-15T13:29:51;8.38;;;3.80;;
56075;SDS011;41951;49.022;12.066;2024-01-15T13:32:25;6.82;;;3.30;;
56075;SDS011;41951;49.022;12.066;2024-01-15T13:34:53;6.28;;;3.15;;
56075;SDS011;41951;49.022;12.066;2024-01-15T13:37:20;6.50;;;3.53;;
56075;SDS011;41951;49.022;12.066;2024-01-15T13:39:46;6.65;;;2.92;;
56075;SDS011;41951;49.022;12.066;2024-01-15T13:42:11;7.40;;;2.97;;
56075;SDS011;41951;49.022;12.066;2024-01-15T13:44:37;6.50;;;3.25;;
56075;SDS011;41951;49.022;12.066;2024-01-15T13:47:03;6.97;;;3.05;;
56075;SDS011;41951;49.022;12.066;2024-01-15T13:49:30;7.65;;;3.85;;
56075;SDS011;41951;49.022;12.066;2024-01-15T13:51:55;8.90;;;3.47;;
56075;SDS011;41951;49.022;12.066;2024-01-15T13:54:21;6.78;;;3.35;;
56075;SDS011;41951;49.022;12.066;2024-01-15T13:56:46;7.50;;;4.15;;
56075;SDS011;41951;49.022;12.066;2024-01-15T13:59:12;5.50;;;3.25;;
56075;SDS011;41951;49.022;12.066;2024-01-15T14:01:38;7.63;;;3.47;;
56075;SDS011;41951;49.022;12.066;2024-01-15T14:04:03;13.88;;;4.15;;
56075;SDS011;41951;49.022;12.066;2024-01-15T14:06:29;7.68;;;3.40;;
56075;SDS011;41951;49.022;12.066;2024-01-15T14:08:55;12.30;;;4.25;;
56075;SDS011;41951;49.022;12.066;2024-01-15T14:11:20;9.40;;;4.70;;
56075;SDS011;41951;49.022;12.066;2024-01-15T14:13:46;8.68;;;3.78;;
56075;SDS011;41951;49.022;12.066;2024-01-15T14:16:12;8.23;;;3.97;;
56075;SDS011;41951;49.022;12.066;2024-01-15T14:18:38;6.72;;;3.35;;
56075;SDS011;41951;49.022;12.066;2024-01-15T14:21:03;6.53;;;3.10;;
56075;SDS011;41951;49.022;12.066;2024-01-15T14:23:29;6.00;;;2.92;;